createdAt,value
2023-05-09T00:00:00.012Z,624.00
2023-05-09T00:01:00.057Z,630.00
2023-05-09T00:02:00.249Z,624.00
2023-05-09T00:03:00.345Z,631.00
2023-05-09T00:04:00.291Z,630.00
2023-05-09T00:05:00.322Z,629.00
2023-05-09T00:06:00.437Z,620.00
2023-05-09T00:07:00.415Z,622.00
2023-05-09T00:08:00.481Z,628.00
2023-05-09T00:09:00.560Z,625.00
2023-05-09T00:10:00.594Z,629.00
2023-05-09T00:11:00.665Z,625.00
2023-05-09T00:12:00.731Z,630.00
2023-05-09T00:13:00.875Z,626.00
2023-05-09T00:14:00.864Z,629.00
2023-05-09T00:15:00.902Z,621.00
2023-05-09T00:16:01.006Z,626.00
2023-05-09T00:17:01.058Z,625.00
2023-05-09T00:18:01.260Z,624.00
2023-05-09T00:19:01.175Z,626.00
2023-05-09T00:20:01.243Z,625.00
2023-05-09T00:21:01.289Z,621.00
2023-05-09T00:22:01.426Z,621.00
2023-05-09T00:23:01.395Z,623.00
2023-05-09T00:24:01.485Z,626.00
2023-05-09T00:25:01.581Z,619.00
2023-05-09T00:26:01.611Z,620.00
2023-05-09T00:27:01.673Z,619.00
2023-05-09T00:28:01.724Z,619.00
2023-05-09T00:29:01.823Z,624.00
2023-05-09T00:30:01.864Z,625.00
2023-05-09T00:31:01.930Z,625.00
2023-05-09T00:32:02.007Z,624.00
2023-05-09T00:33:02.122Z,622.00
2023-05-09T00:34:02.125Z,626.00
2023-05-09T00:35:02.214Z,622.00
2023-05-09T00:36:02.240Z,628.00
2023-05-09T00:37:02.330Z,624.00
2023-05-09T00:38:02.457Z,626.00
2023-05-09T00:39:02.445Z,627.00
2023-05-09T00:40:02.558Z,620.00
2023-05-09T00:41:02.557Z,620.00
2023-05-09T00:42:02.622Z,624.00
2023-05-09T00:43:02.729Z,617.00
2023-05-09T00:44:02.750Z,625.00
2023-05-09T00:45:02.846Z,626.00
2023-05-09T00:46:02.937Z,622.00
2023-05-09T00:47:02.963Z,623.00
2023-05-09T00:48:03.141Z,623.00
2023-05-09T00:49:03.054Z,625.00
2023-05-09T00:50:03.119Z,618.00
2023-05-09T00:51:03.199Z,621.00
2023-05-09T00:52:03.226Z,625.00
2023-05-09T00:53:03.299Z,623.00
2023-05-09T00:54:03.440Z,621.00
2023-05-09T00:55:03.433Z,624.00
2023-05-09T00:56:03.430Z,619.00
2023-05-09T00:57:03.525Z,621.00
2023-05-09T00:58:03.597Z,618.00
2023-05-09T00:59:03.649Z,616.00
2023-05-09T01:00:03.771Z,621.00
2023-05-09T01:01:03.852Z,622.00
2023-05-09T01:02:03.841Z,627.00
2023-05-09T01:03:03.942Z,623.00
2023-05-09T01:04:03.942Z,617.00
2023-05-09T01:05:04.011Z,619.00
2023-05-09T01:06:04.094Z,616.00
2023-05-09T01:07:04.122Z,618.00
2023-05-09T01:08:04.237Z,615.00
2023-05-09T01:09:04.264Z,623.00
2023-05-09T01:10:04.407Z,622.00
2023-05-09T01:11:04.371Z,619.00
2023-05-09T01:12:04.421Z,623.00
2023-05-09T01:13:04.524Z,619.00
2023-05-09T01:14:04.508Z,620.00
2023-05-09T01:15:04.596Z,614.00
2023-05-09T01:16:04.647Z,620.00
2023-05-09T01:17:04.652Z,618.00
2023-05-09T01:18:04.731Z,619.00
2023-05-09T01:19:04.714Z,619.00
2023-05-09T01:20:04.775Z,614.00
2023-05-09T01:21:04.787Z,613.00
2023-05-09T01:22:04.888Z,622.00
2023-05-09T01:23:04.966Z,621.00
2023-05-09T01:24:04.967Z,615.00
2023-05-09T01:25:05.034Z,608.00
2023-05-09T01:26:05.148Z,613.00
2023-05-09T01:27:05.117Z,619.00
2023-05-09T01:28:05.193Z,614.00
2023-05-09T01:29:05.246Z,615.00
2023-05-09T01:30:05.305Z,612.00
2023-05-09T01:31:05.477Z,611.00
2023-05-09T01:32:05.419Z,609.00
2023-05-09T01:33:05.572Z,609.00
2023-05-09T01:34:05.681Z,612.00
2023-05-09T01:35:05.702Z,614.00
2023-05-09T01:36:05.662Z,612.00
2023-05-09T01:37:05.741Z,619.00
2023-05-09T01:38:05.766Z,613.00
2023-05-09T01:39:05.818Z,621.00
2023-05-09T01:40:05.894Z,616.00
2023-05-09T01:41:05.934Z,619.00
2023-05-09T01:42:06.077Z,612.00
2023-05-09T01:43:06.044Z,611.00
2023-05-09T01:44:06.140Z,607.00
2023-05-09T01:45:06.213Z,614.00
2023-05-09T01:46:06.291Z,611.00
2023-05-09T01:47:06.269Z,620.00
2023-05-09T01:48:06.392Z,618.00
2023-05-09T01:49:06.365Z,609.00
2023-05-09T01:50:06.399Z,615.00
2023-05-09T01:51:06.468Z,616.00
2023-05-09T01:52:06.529Z,615.00
2023-05-09T01:53:06.552Z,605.00
2023-05-09T01:54:06.647Z,607.00
2023-05-09T01:55:06.656Z,611.00
2023-05-09T01:56:06.704Z,612.00
2023-05-09T01:57:06.744Z,611.00
2023-05-09T01:58:06.861Z,613.00
2023-05-09T01:59:06.849Z,607.00
2023-05-09T02:00:06.891Z,615.00
2023-05-09T02:01:06.958Z,603.00
2023-05-09T02:02:06.962Z,607.00
2023-05-09T02:03:07.017Z,616.00
2023-05-09T02:04:07.004Z,607.00
2023-05-09T02:05:07.093Z,608.00
2023-05-09T02:06:07.121Z,608.00
2023-05-09T02:07:07.158Z,615.00
2023-05-09T02:08:07.198Z,610.00
2023-05-09T02:09:07.258Z,604.00
2023-05-09T02:10:07.319Z,607.00
2023-05-09T02:11:07.346Z,614.00
2023-05-09T02:12:07.316Z,607.00
2023-05-09T02:13:07.364Z,608.00
2023-05-09T02:14:07.433Z,610.00
2023-05-09T02:15:07.394Z,610.00
2023-05-09T02:16:07.465Z,608.00
2023-05-09T02:17:07.432Z,607.00
2023-05-09T02:18:07.506Z,606.00
2023-05-09T02:19:07.485Z,605.00
2023-05-09T02:20:07.495Z,605.00
2023-05-09T02:21:07.556Z,605.00
2023-05-09T02:22:07.605Z,603.00
2023-05-09T02:23:07.551Z,597.00
2023-05-09T02:24:07.610Z,607.00
2023-05-09T02:25:07.650Z,605.00
2023-05-09T02:26:07.666Z,607.00
2023-05-09T02:27:07.715Z,605.00
2023-05-09T02:28:07.769Z,605.00
2023-05-09T02:29:07.793Z,604.00
2023-05-09T02:30:07.932Z,605.00
2023-05-09T02:31:07.872Z,606.00
2023-05-09T02:32:07.981Z,609.00
2023-05-09T02:33:07.938Z,606.00
2023-05-09T02:34:07.927Z,607.00
2023-05-09T02:35:07.960Z,606.00
2023-05-09T02:36:07.960Z,605.00
2023-05-09T02:37:08.013Z,605.00
2023-05-09T02:38:08.021Z,596.00
2023-05-09T02:39:08.033Z,605.00
2023-05-09T02:40:08.022Z,604.00
2023-05-09T02:41:07.990Z,609.00
2023-05-09T02:42:08.040Z,601.00
2023-05-09T02:43:08.054Z,602.00
2023-05-09T02:44:08.047Z,610.00
2023-05-09T02:45:08.075Z,608.00
2023-05-09T02:46:08.167Z,606.00
2023-05-09T02:47:08.069Z,604.00
2023-05-09T02:48:09.033Z,597.00
2023-05-09T02:49:08.119Z,609.00
2023-05-09T02:50:08.158Z,600.00
2023-05-09T02:51:08.210Z,611.00
2023-05-09T02:52:08.237Z,600.00
2023-05-09T02:53:08.217Z,605.00
2023-05-09T02:54:08.231Z,603.00
2023-05-09T02:55:08.274Z,598.00
2023-05-09T02:56:08.282Z,603.00
2023-05-09T02:57:08.281Z,601.00
2023-05-09T02:58:14.014Z,606.00
2023-05-09T02:59:09.338Z,606.00
2023-05-09T03:00:08.320Z,606.00
2023-05-09T03:01:08.365Z,604.00
2023-05-09T03:02:08.419Z,605.00
2023-05-09T03:03:08.508Z,607.00
2023-05-09T03:04:08.310Z,601.00
2023-05-09T03:05:08.305Z,604.00
2023-05-09T03:06:08.281Z,605.00
2023-05-09T03:07:08.245Z,605.00
2023-05-09T03:08:08.386Z,602.00
2023-05-09T03:09:08.275Z,604.00
2023-05-09T03:10:08.288Z,598.00
2023-05-09T03:11:08.247Z,599.00
2023-05-09T03:12:08.252Z,600.00
2023-05-09T03:13:08.301Z,601.00
2023-05-09T03:14:08.289Z,602.00
2023-05-09T03:15:08.201Z,600.00
2023-05-09T03:16:08.242Z,595.00
2023-05-09T03:17:08.227Z,601.00
2023-05-09T03:18:08.326Z,602.00
2023-05-09T03:19:08.242Z,604.00
2023-05-09T03:20:08.236Z,600.00
2023-05-09T03:21:08.273Z,597.00
2023-05-09T03:22:08.320Z,601.00
2023-05-09T03:23:08.373Z,606.00
2023-05-09T03:24:08.368Z,602.00
2023-05-09T03:25:08.365Z,599.00
2023-05-09T03:26:08.395Z,602.00
2023-05-09T03:27:08.409Z,599.00
2023-05-09T03:28:08.464Z,599.00
2023-05-09T03:29:08.472Z,598.00
2023-05-09T03:30:08.476Z,598.00
2023-05-09T03:31:08.521Z,598.00
2023-05-09T03:32:08.540Z,598.00
2023-05-09T03:33:08.578Z,600.00
2023-05-09T03:34:08.667Z,601.00
2023-05-09T03:35:08.578Z,602.00
2023-05-09T03:36:08.560Z,600.00
2023-05-09T03:37:08.638Z,599.00
2023-05-09T03:38:08.680Z,596.00
2023-05-09T03:39:08.600Z,598.00
2023-05-09T03:40:08.668Z,602.00
2023-05-09T03:41:08.697Z,598.00
2023-05-09T03:42:08.689Z,594.00
2023-05-09T03:43:08.717Z,596.00
2023-05-09T03:44:08.714Z,598.00
2023-05-09T03:45:08.703Z,601.00
2023-05-09T03:46:08.749Z,594.00
2023-05-09T03:47:08.765Z,593.00
2023-05-09T03:48:08.829Z,597.00
2023-05-09T03:49:08.772Z,593.00
2023-05-09T03:50:08.856Z,593.00
2023-05-09T03:51:08.767Z,597.00
2023-05-09T03:52:08.782Z,594.00
2023-05-09T03:53:08.794Z,594.00
2023-05-09T03:54:08.793Z,596.00
2023-05-09T03:55:08.766Z,599.00
2023-05-09T03:56:08.771Z,596.00
2023-05-09T03:57:08.782Z,596.00
2023-05-09T03:58:08.781Z,596.00
2023-05-09T03:59:08.782Z,597.00
2023-05-09T04:00:08.789Z,597.00
2023-05-09T04:01:08.788Z,594.00
2023-05-09T04:02:08.881Z,597.00
2023-05-09T04:03:09.040Z,596.00
2023-05-09T04:04:08.954Z,596.00
2023-05-09T04:05:08.859Z,585.00
2023-05-09T04:06:09.023Z,585.00
2023-05-09T04:07:08.961Z,568.00
2023-05-09T04:08:09.046Z,564.00
2023-05-09T04:09:09.075Z,559.00
2023-05-09T04:10:09.160Z,548.00
2023-05-09T04:11:09.216Z,532.00
2023-05-09T04:12:09.288Z,521.00
2023-05-09T04:13:09.320Z,521.00
2023-05-09T04:14:09.352Z,518.00
2023-05-09T04:15:09.443Z,509.00
2023-05-09T04:16:09.500Z,507.00
2023-05-09T04:17:09.696Z,507.00
2023-05-09T04:18:09.698Z,503.00
2023-05-09T04:19:09.683Z,505.00
2023-05-09T04:20:09.750Z,507.00
2023-05-09T04:21:09.755Z,504.00
2023-05-09T04:22:09.928Z,502.00
2023-05-09T04:23:09.870Z,507.00
2023-05-09T04:24:09.982Z,508.00
2023-05-09T04:25:09.991Z,509.00
2023-05-09T04:26:10.033Z,506.00
2023-05-09T04:27:10.096Z,509.00
2023-05-09T04:28:10.134Z,508.00
2023-05-09T04:29:10.138Z,512.00
2023-05-09T04:30:10.221Z,508.00
2023-05-09T04:31:10.322Z,512.00
2023-05-09T04:32:10.380Z,514.00
2023-05-09T04:33:10.345Z,510.00
2023-05-09T04:34:10.238Z,512.00
2023-05-09T04:35:10.253Z,513.00
2023-05-09T04:36:10.272Z,515.00
2023-05-09T04:37:10.278Z,517.00
2023-05-09T04:38:10.334Z,512.00
2023-05-09T04:39:10.228Z,515.00
2023-05-09T04:40:10.219Z,518.00
2023-05-09T04:41:10.239Z,520.00
2023-05-09T04:42:10.250Z,520.00
2023-05-09T04:43:10.216Z,518.00
2023-05-09T04:44:10.220Z,527.00
2023-05-09T04:45:10.184Z,521.00
2023-05-09T04:46:10.248Z,523.00
2023-05-09T04:47:10.243Z,531.00
2023-05-09T04:48:10.204Z,529.00
2023-05-09T04:49:10.176Z,532.00
2023-05-09T04:50:10.194Z,530.00
2023-05-09T04:51:10.206Z,533.00
2023-05-09T04:52:10.227Z,531.00
2023-05-09T04:53:10.167Z,523.00
2023-05-09T04:54:10.277Z,529.00
2023-05-09T04:55:10.192Z,535.00
2023-05-09T04:56:10.190Z,532.00
2023-05-09T04:57:17.923Z,535.00
2023-05-09T04:58:11.172Z,535.00
2023-05-09T04:59:10.135Z,535.00
2023-05-09T05:00:10.154Z,536.00
2023-05-09T05:01:10.167Z,538.00
2023-05-09T05:02:10.129Z,542.00
2023-05-09T05:03:10.230Z,540.00
2023-05-09T05:04:10.151Z,535.00
2023-05-09T05:05:12.352Z,534.00
2023-05-09T05:06:10.326Z,547.00
2023-05-09T05:07:10.324Z,543.00
2023-05-09T05:08:10.272Z,537.00
2023-05-09T05:09:10.306Z,544.00
2023-05-09T05:10:10.308Z,542.00
2023-05-09T05:11:10.312Z,539.00
2023-05-09T05:12:10.238Z,539.00
2023-05-09T05:13:10.366Z,543.00
2023-05-09T05:14:10.289Z,540.00
2023-05-09T05:15:10.271Z,542.00
2023-05-09T05:16:10.338Z,540.00
2023-05-09T05:17:10.288Z,539.00
2023-05-09T05:18:10.358Z,540.00
2023-05-09T05:19:10.288Z,540.00
2023-05-09T05:20:10.274Z,543.00
2023-05-09T05:21:10.279Z,542.00
2023-05-09T05:22:10.268Z,532.00
2023-05-09T05:23:10.331Z,542.00
2023-05-09T05:24:10.296Z,542.00
2023-05-09T05:25:10.299Z,543.00
2023-05-09T05:26:10.442Z,539.00
2023-05-09T05:27:10.357Z,543.00
2023-05-09T05:28:10.426Z,541.00
2023-05-09T05:29:10.559Z,539.00
2023-05-09T05:30:10.453Z,541.00
2023-05-09T05:31:10.572Z,542.00
2023-05-09T05:32:10.548Z,545.00
2023-05-09T05:33:10.609Z,566.00
2023-05-09T05:34:10.626Z,561.00
2023-05-09T05:35:10.718Z,563.00
2023-05-09T05:36:10.788Z,562.00
2023-05-09T05:37:10.804Z,564.00
2023-05-09T05:38:10.881Z,566.00
2023-05-09T05:39:10.938Z,572.00
2023-05-09T05:40:11.032Z,570.00
2023-05-09T05:41:11.007Z,604.00
2023-05-09T05:42:11.139Z,617.00
2023-05-09T05:43:11.097Z,629.00
2023-05-09T05:44:11.160Z,753.00
2023-05-09T05:45:11.248Z,700.00
2023-05-09T05:46:11.284Z,651.00
2023-05-09T05:47:11.326Z,684.00
2023-05-09T05:48:11.438Z,671.00
2023-05-09T05:49:11.420Z,681.00
2023-05-09T05:50:11.498Z,697.00
2023-05-09T05:51:11.589Z,694.00
2023-05-09T05:52:11.606Z,692.00
2023-05-09T05:53:11.711Z,695.00
2023-05-09T05:54:11.725Z,697.00
2023-05-09T05:55:11.857Z,697.00
2023-05-09T05:56:11.893Z,692.00
2023-05-09T05:57:11.907Z,677.00
2023-05-09T05:58:12.022Z,666.00
2023-05-09T05:59:13.384Z,655.00
2023-05-09T06:00:12.067Z,651.00
2023-05-09T06:01:12.198Z,641.00
2023-05-09T06:02:12.197Z,642.00
2023-05-09T06:03:12.374Z,637.00
2023-05-09T06:04:12.370Z,641.00
2023-05-09T06:05:12.679Z,638.00
2023-05-09T06:06:12.440Z,635.00
2023-05-09T06:07:12.515Z,635.00
2023-05-09T06:08:12.588Z,629.00
2023-05-09T06:09:12.643Z,624.00
2023-05-09T06:10:12.684Z,619.00
2023-05-09T06:11:12.756Z,614.00
2023-05-09T06:12:12.786Z,616.00
2023-05-09T06:13:12.962Z,623.00
2023-05-09T06:14:13.032Z,611.00
2023-05-09T06:15:13.336Z,610.00
2023-05-09T06:16:19.295Z,612.00
2023-05-09T06:17:14.104Z,613.00
2023-05-09T06:18:13.050Z,612.00
2023-05-09T06:19:13.057Z,609.00
2023-05-09T06:20:13.012Z,601.00
2023-05-09T06:21:12.983Z,600.00
2023-05-09T06:22:12.990Z,593.00
2023-05-09T06:23:13.023Z,591.00
2023-05-09T06:24:20.116Z,598.00
2023-05-09T06:25:14.289Z,598.00
2023-05-09T06:26:12.975Z,600.00
2023-05-09T06:27:12.959Z,602.00
2023-05-09T06:28:12.966Z,602.00
2023-05-09T06:29:12.985Z,606.00
2023-05-09T06:30:24.539Z,598.00
2023-05-09T06:31:14.131Z,599.00
2023-05-09T06:32:12.968Z,599.00
2023-05-09T06:33:12.944Z,603.00
2023-05-09T06:34:12.976Z,599.00
2023-05-09T06:35:13.165Z,604.00
2023-05-09T06:36:13.035Z,598.00
2023-05-09T06:37:12.966Z,596.00
2023-05-09T06:38:12.938Z,593.00
2023-05-09T06:39:12.901Z,595.00
2023-05-09T06:40:13.015Z,591.00
2023-05-09T06:41:12.996Z,589.00
2023-05-09T06:42:13.069Z,585.00
2023-05-09T06:43:13.155Z,588.00
2023-05-09T06:44:13.190Z,588.00
2023-05-09T06:45:13.409Z,589.00
2023-05-09T06:46:13.390Z,583.00
2023-05-09T06:47:13.257Z,579.00
2023-05-09T06:48:13.349Z,583.00
2023-05-09T06:49:13.354Z,576.00
2023-05-09T06:50:13.424Z,570.00
2023-05-09T06:51:13.490Z,572.00
2023-05-09T06:52:13.544Z,567.00
2023-05-09T06:53:13.558Z,571.00
2023-05-09T06:54:13.594Z,569.00
2023-05-09T06:55:13.797Z,565.00
2023-05-09T06:56:13.737Z,573.00
2023-05-09T06:57:13.744Z,572.00
2023-05-09T06:58:13.827Z,568.00
2023-05-09T06:59:13.898Z,567.00
2023-05-09T07:00:14.039Z,558.00
2023-05-09T07:01:13.991Z,564.00
2023-05-09T07:02:14.119Z,563.00
2023-05-09T07:03:14.054Z,562.00
2023-05-09T07:04:14.146Z,563.00
2023-05-09T07:05:14.306Z,573.00
2023-05-09T07:06:14.212Z,564.00
2023-05-09T07:07:14.267Z,567.00
2023-05-09T07:08:14.334Z,567.00
2023-05-09T07:09:14.331Z,568.00
2023-05-09T07:10:14.353Z,572.00
2023-05-09T07:11:14.401Z,570.00
2023-05-09T07:12:14.431Z,578.00
2023-05-09T07:13:14.537Z,578.00
2023-05-09T07:14:14.567Z,580.00
2023-05-09T07:15:20.410Z,584.00
2023-05-09T07:16:15.671Z,585.00
2023-05-09T07:17:23.536Z,586.00
2023-05-09T07:18:15.668Z,585.00
2023-05-09T07:19:14.590Z,588.00
2023-05-09T07:20:14.558Z,592.00
2023-05-09T07:21:14.527Z,600.00
2023-05-09T07:22:14.537Z,616.00
2023-05-09T07:23:14.525Z,611.00
2023-05-09T07:24:14.533Z,616.00
2023-05-09T07:25:14.869Z,616.00
2023-05-09T07:26:14.557Z,624.00
2023-05-09T07:27:14.592Z,612.00
2023-05-09T07:28:14.609Z,622.00
2023-05-09T07:29:14.675Z,619.00
2023-05-09T07:30:14.892Z,624.00
2023-05-09T07:31:15.616Z,620.00
2023-05-09T07:32:14.815Z,639.00
2023-05-09T07:33:14.884Z,655.00
2023-05-09T07:34:15.003Z,645.00
2023-05-09T07:35:15.257Z,658.00
2023-05-09T07:36:15.070Z,690.00
2023-05-09T07:37:16.373Z,682.00
2023-05-09T07:38:15.101Z,716.00
2023-05-09T07:39:15.155Z,725.00
2023-05-09T07:40:15.487Z,692.00
2023-05-09T07:41:15.271Z,695.00
2023-05-09T07:42:15.268Z,700.00
2023-05-09T07:43:15.326Z,697.00
2023-05-09T07:44:15.378Z,711.00
2023-05-09T07:45:15.626Z,697.00
2023-05-09T07:46:15.526Z,720.00
2023-05-09T07:47:15.585Z,729.00
2023-05-09T07:48:15.627Z,707.00
2023-05-09T07:49:15.675Z,686.00
2023-05-09T07:50:15.871Z,693.00
2023-05-09T07:51:15.851Z,687.00
2023-05-09T07:52:15.867Z,683.00
2023-05-09T07:53:15.918Z,678.00
2023-05-09T07:54:16.045Z,668.00
2023-05-09T07:55:16.390Z,666.00
2023-05-09T07:56:16.140Z,658.00
2023-05-09T07:57:16.195Z,664.00
2023-05-09T07:58:16.256Z,663.00
2023-05-09T07:59:16.287Z,664.00
2023-05-09T08:00:16.353Z,654.00
2023-05-09T08:01:17.467Z,649.00
2023-05-09T08:02:16.537Z,659.00
2023-05-09T08:03:16.644Z,658.00
2023-05-09T08:04:16.566Z,663.00
2023-05-09T08:05:17.028Z,667.00
2023-05-09T08:06:16.768Z,683.00
2023-05-09T08:07:16.831Z,664.00
2023-05-09T08:08:16.834Z,696.00
2023-05-09T08:09:16.856Z,713.00
2023-05-09T08:10:16.940Z,697.00
2023-05-09T08:11:16.949Z,691.00
2023-05-09T08:12:17.055Z,697.00
2023-05-09T08:13:17.124Z,697.00
2023-05-09T08:14:17.115Z,724.00
2023-05-09T08:15:17.585Z,722.00
2023-05-09T08:16:17.300Z,701.00
2023-05-09T08:17:17.265Z,671.00
2023-05-09T08:18:17.369Z,665.00
2023-05-09T08:19:17.416Z,672.00
2023-05-09T08:20:17.468Z,682.00
2023-05-09T08:21:18.060Z,670.00
2023-05-09T08:22:17.606Z,679.00
2023-05-09T08:23:17.554Z,700.00
2023-05-09T08:24:17.594Z,708.00
2023-05-09T08:25:18.079Z,769.00
2023-05-09T08:26:18.101Z,678.00
2023-05-09T08:27:17.729Z,679.00
2023-05-09T08:28:18.127Z,638.00
2023-05-09T08:29:17.787Z,592.00
2023-05-09T08:30:17.805Z,604.00
2023-05-09T08:31:18.158Z,604.00
2023-05-09T08:32:17.884Z,613.00
2023-05-09T08:33:17.986Z,593.00
2023-05-09T08:34:18.037Z,534.00
2023-05-09T08:35:18.108Z,498.00
2023-05-09T08:36:18.149Z,503.00
2023-05-09T08:37:18.225Z,506.00
2023-05-09T08:38:18.296Z,500.00
2023-05-09T08:39:18.215Z,500.00
2023-05-09T08:40:18.225Z,509.00
2023-05-09T08:41:18.237Z,525.00
2023-05-09T08:42:18.219Z,523.00
2023-05-09T08:43:18.230Z,537.00
2023-05-09T08:44:18.235Z,531.00
2023-05-09T08:45:18.217Z,507.00
2023-05-09T08:46:18.267Z,525.00
2023-05-09T08:47:18.187Z,538.00
2023-05-09T08:48:18.246Z,550.00
2023-05-09T08:49:18.235Z,570.00
2023-05-09T08:50:18.440Z,585.00
2023-05-09T08:51:18.363Z,593.00
2023-05-09T08:52:18.415Z,601.00
2023-05-09T08:53:18.592Z,606.00
2023-05-09T08:54:20.088Z,619.00
2023-05-09T08:55:18.582Z,621.00
2023-05-09T08:56:18.452Z,618.00
2023-05-09T08:57:18.508Z,618.00
2023-05-09T08:58:18.624Z,617.00
2023-05-09T08:59:18.605Z,621.00
2023-05-09T09:00:20.435Z,620.00
2023-05-09T09:01:18.523Z,621.00
2023-05-09T09:02:18.563Z,625.00
2023-05-09T09:03:18.569Z,633.00
2023-05-09T09:04:18.563Z,639.00
2023-05-09T09:05:39.589Z,653.00
2023-05-09T09:06:19.545Z,621.00
2023-05-09T09:07:18.536Z,626.00
2023-05-09T09:08:18.586Z,632.00
2023-05-09T09:09:18.518Z,638.00
2023-05-09T09:10:18.627Z,648.00
2023-05-09T09:11:18.586Z,651.00
2023-05-09T09:12:18.531Z,649.00
2023-05-09T09:13:18.575Z,654.00
2023-05-09T09:14:18.549Z,650.00
2023-05-09T09:15:18.516Z,648.00
2023-05-09T09:16:18.557Z,657.00
2023-05-09T09:17:18.858Z,653.00
2023-05-09T09:18:18.470Z,659.00
2023-05-09T09:19:18.480Z,657.00
2023-05-09T09:20:18.461Z,665.00
2023-05-09T09:21:18.470Z,660.00
2023-05-09T09:22:18.466Z,673.00
2023-05-09T09:23:18.418Z,689.00
2023-05-09T09:24:18.398Z,676.00
2023-05-09T09:25:18.447Z,688.00
2023-05-09T09:26:18.602Z,675.00
2023-05-09T09:27:18.550Z,661.00
2023-05-09T09:28:18.670Z,652.00
2023-05-09T09:29:18.690Z,649.00
2023-05-09T09:30:18.739Z,653.00
2023-05-09T09:31:18.841Z,665.00
2023-05-09T09:32:18.865Z,727.00
2023-05-09T09:33:18.969Z,710.00
2023-05-09T09:34:18.972Z,716.00
2023-05-09T09:35:19.013Z,646.00
2023-05-09T09:36:18.992Z,633.00
2023-05-09T09:37:19.024Z,645.00
2023-05-09T09:38:19.020Z,647.00
2023-05-09T09:39:19.162Z,641.00
2023-05-09T09:40:19.212Z,647.00
2023-05-09T09:41:19.235Z,640.00
2023-05-09T09:42:19.400Z,629.00
2023-05-09T09:43:19.385Z,628.00
2023-05-09T09:44:19.658Z,631.00
2023-05-09T09:45:19.487Z,622.00
2023-05-09T09:46:19.552Z,626.00
2023-05-09T09:47:19.614Z,611.00
2023-05-09T09:48:19.646Z,607.00
2023-05-09T09:49:19.714Z,599.00
2023-05-09T09:50:19.826Z,601.00
2023-05-09T09:51:19.841Z,592.00
2023-05-09T09:52:19.913Z,591.00
2023-05-09T09:53:19.968Z,594.00
2023-05-09T09:54:20.015Z,603.00
2023-05-09T09:55:20.061Z,601.00
2023-05-09T09:56:20.155Z,600.00
2023-05-09T09:57:20.186Z,609.00
2023-05-09T09:58:20.345Z,608.00
2023-05-09T09:59:20.328Z,622.00
2023-05-09T10:00:20.380Z,617.00
2023-05-09T10:01:20.499Z,616.00
2023-05-09T10:02:20.475Z,621.00
2023-05-09T10:03:20.714Z,610.00
2023-05-09T10:04:20.612Z,616.00
2023-05-09T10:05:20.657Z,596.00
2023-05-09T10:06:20.769Z,587.00
2023-05-09T10:07:20.774Z,586.00
2023-05-09T10:08:20.852Z,585.00
2023-05-09T10:09:20.894Z,567.00
2023-05-09T10:10:20.966Z,557.00
2023-05-09T10:11:21.097Z,544.00
2023-05-09T10:12:21.111Z,548.00
2023-05-09T10:13:21.305Z,548.00
2023-05-09T10:14:21.241Z,528.00
2023-05-09T10:15:21.247Z,520.00
2023-05-09T10:16:28.506Z,521.00
2023-05-09T10:17:22.553Z,518.00
2023-05-09T10:18:21.451Z,498.00
2023-05-09T10:19:21.276Z,486.00
2023-05-09T10:20:21.252Z,479.00
2023-05-09T10:21:21.269Z,485.00
2023-05-09T10:22:21.248Z,500.00
2023-05-09T10:23:21.247Z,501.00
2023-05-09T10:24:21.239Z,503.00
2023-05-09T10:25:21.264Z,501.00
2023-05-09T10:26:21.223Z,514.00
2023-05-09T10:27:21.301Z,526.00
2023-05-09T10:28:21.215Z,564.00
2023-05-09T10:29:21.233Z,565.00
2023-05-09T10:30:21.351Z,565.00
2023-05-09T10:31:21.404Z,563.00
2023-05-09T10:32:21.428Z,582.00
2023-05-09T10:33:21.470Z,593.00
2023-05-09T10:34:21.564Z,604.00
2023-05-09T10:35:21.587Z,584.00
2023-05-09T10:36:21.617Z,606.00
2023-05-09T10:37:21.733Z,611.00
2023-05-09T10:38:21.769Z,627.00
2023-05-09T10:39:22.124Z,634.00
2023-05-09T10:40:21.904Z,629.00
2023-05-09T10:41:22.032Z,629.00
2023-05-09T10:42:22.022Z,621.00
2023-05-09T10:43:22.065Z,628.00
2023-05-09T10:44:22.148Z,637.00
2023-05-09T10:45:22.224Z,633.00
2023-05-09T10:46:22.384Z,626.00
2023-05-09T10:47:22.340Z,621.00
2023-05-09T10:48:22.366Z,630.00
2023-05-09T10:49:22.451Z,633.00
2023-05-09T10:50:22.524Z,658.00
2023-05-09T10:51:22.517Z,700.00
2023-05-09T10:52:22.578Z,657.00
2023-05-09T10:53:22.658Z,708.00
2023-05-09T10:54:22.716Z,738.00
2023-05-09T10:55:22.741Z,714.00
2023-05-09T10:56:22.830Z,765.00
2023-05-09T10:57:22.855Z,734.00
2023-05-09T10:58:22.928Z,763.00
2023-05-09T10:59:23.022Z,762.00
2023-05-09T11:00:23.023Z,722.00
2023-05-09T11:01:23.170Z,746.00
2023-05-09T11:02:23.284Z,755.00
2023-05-09T11:03:23.347Z,750.00
2023-05-09T11:04:23.277Z,721.00
2023-05-09T11:05:23.304Z,805.00
2023-05-09T11:06:23.353Z,736.00
2023-05-09T11:07:23.428Z,705.00
2023-05-09T11:08:23.491Z,661.00
2023-05-09T11:09:23.540Z,662.00
2023-05-09T11:10:23.586Z,703.00
2023-05-09T11:11:23.672Z,720.00
2023-05-09T11:12:23.675Z,714.00
2023-05-09T11:13:24.157Z,729.00
2023-05-09T11:14:23.827Z,682.00
2023-05-09T11:15:23.911Z,768.00
2023-05-09T11:16:24.032Z,724.00
2023-05-09T11:17:24.025Z,709.00
2023-05-09T11:18:24.129Z,671.00
2023-05-09T11:19:24.123Z,662.00
2023-05-09T11:20:24.682Z,591.00
2023-05-09T11:21:24.623Z,545.00
2023-05-09T11:22:24.641Z,495.00
2023-05-09T11:23:24.635Z,523.00
2023-05-09T11:24:24.655Z,518.00
2023-05-09T11:25:24.457Z,518.00
2023-05-09T11:26:24.523Z,508.00
2023-05-09T11:27:24.595Z,500.00
2023-05-09T11:28:24.645Z,500.00
2023-05-09T11:29:24.672Z,497.00
2023-05-09T11:30:24.771Z,475.00
2023-05-09T11:31:24.872Z,500.00
2023-05-09T11:32:24.911Z,500.00
2023-05-09T11:33:24.921Z,494.00
2023-05-09T11:34:25.034Z,471.00
2023-05-09T11:35:25.056Z,467.00
2023-05-09T11:36:25.066Z,505.00
2023-05-09T11:37:25.117Z,511.00
2023-05-09T11:38:25.165Z,501.00
2023-05-09T11:39:25.144Z,504.00
2023-05-09T11:40:25.186Z,500.00
2023-05-09T11:41:25.139Z,510.00
2023-05-09T11:42:25.106Z,502.00
2023-05-09T11:43:25.110Z,500.00
2023-05-09T11:44:25.104Z,501.00
2023-05-09T11:45:25.136Z,503.00
2023-05-09T11:46:25.131Z,500.00
2023-05-09T11:47:25.182Z,503.00
2023-05-09T11:48:25.191Z,496.00
2023-05-09T11:49:25.203Z,471.00
2023-05-09T11:50:25.359Z,514.00
2023-05-09T11:51:25.314Z,482.00
2023-05-09T11:52:25.355Z,500.00
2023-05-09T11:53:25.401Z,480.00
2023-05-09T11:54:25.498Z,497.00
2023-05-09T11:55:25.862Z,498.00
2023-05-09T11:56:25.512Z,498.00
2023-05-09T11:57:25.571Z,561.00
2023-05-09T11:58:25.560Z,556.00
2023-05-09T11:59:25.595Z,575.00
2023-05-09T12:00:25.668Z,591.00
2023-05-09T12:01:25.661Z,598.00
2023-05-09T12:02:25.752Z,640.00
2023-05-09T12:03:26.082Z,828.00
2023-05-09T12:04:25.770Z,934.00
2023-05-09T12:05:25.758Z,1065.00
2023-05-09T12:06:25.851Z,1126.00
2023-05-09T12:07:25.790Z,1194.00
2023-05-09T12:08:25.805Z,1096.00
2023-05-09T12:09:25.819Z,979.00
2023-05-09T12:10:25.790Z,897.00
2023-05-09T12:11:25.802Z,948.00
2023-05-09T12:12:25.763Z,1001.00
2023-05-09T12:13:25.810Z,1039.00
2023-05-09T12:14:25.800Z,1192.00
2023-05-09T12:15:25.803Z,1248.00
2023-05-09T12:16:25.930Z,1390.00
2023-05-09T12:17:25.900Z,1465.00
2023-05-09T12:18:25.912Z,1566.00
2023-05-09T12:19:25.947Z,1580.00
2023-05-09T12:20:25.972Z,1653.00
2023-05-09T12:21:26.058Z,1766.00
2023-05-09T12:22:26.215Z,1802.00
2023-05-09T12:23:26.190Z,1823.00
2023-05-09T12:24:26.269Z,1858.00
2023-05-09T12:25:26.369Z,1892.00
2023-05-09T12:26:26.354Z,1979.00
2023-05-09T12:27:26.476Z,1981.00